Time;durP1;ratioP1;P1;durP2;ratioP2;P2;SDS_P1;SDS_P2;PMS_P1;PMS_P2;Temp;Humidity;BMP_temperature;BMP_pressure;BME280_temperature;BME280_humidity;BME280_pressure;Samples;Min_cycle;Max_cycle;Signal;HPM_P1;HPM_P2
2022/04/09 00:01:17;;;;;;;0.30;0.20;;;2.80;99.90;;;;;;5139758;27;20679;-81
2022/04/09 00:03:44;;;;;;;0.40;0.37;;;2.70;99.90;;;;;;5137618;27;21135;-81
2022/04/09 00:06:11;;;;;;;0.40;0.30;;;2.70;99.90;;;;;;5144402;27;21131;-81
2022/04/09 00:08:37;;;;;;;0.67;0.47;;;2.70;99.90;;;;;;5143341;27;20617;-81
2022/04/09 00:11:04;;;;;;;0.40;0.30;;;2.80;99.90;;;;;;5141951;27;20663;-81
2022/04/09 00:13:31;;;;;;;0.37;0.30;;;2.70;99.90;;;;;;5147737;27;20625;-81
2022/04/09 00:15:58;;;;;;;0.40;0.40;;;2.60;99.90;;;;;;5143831;27;20618;-81
2022/04/09 00:18:26;;;;;;;0.40;0.40;;;2.90;99.90;;;;;;5140016;27;20618;-81
2022/04/09 00:20:53;;;;;;;0.60;0.47;;;2.20;99.90;;;;;;5141812;27;20680;-82
2022/04/09 00:23:19;;;;;;;0.40;0.37;;;2.40;99.90;;;;;;5148715;27;20670;-82
2022/04/09 00:25:46;;;;;;;0.60;0.60;;;2.30;99.90;;;;;;5144492;27;20626;-82
2022/04/09 00:28:13;;;;;;;0.40;0.40;;;3.00;99.90;;;;;;5139626;27;20641;-81
2022/04/09 00:30:40;;;;;;;0.73;0.50;;;2.70;99.90;;;;;;5142792;27;20645;-81
2022/04/09 00:33:06;;;;;;;0.40;0.30;;;2.90;99.90;;;;;;5138889;27;20626;-82
2022/04/09 00:35:34;;;;;;;0.40;0.40;;;3.20;99.90;;;;;;5143102;27;20637;-82
2022/04/09 00:38:01;;;;;;;0.70;0.70;;;3.10;99.90;;;;;;5138955;27;20637;-81
2022/04/09 00:40:28;;;;;;;0.50;0.50;;;3.00;99.90;;;;;;5144812;27;20676;-82
2022/04/09 00:42:55;;;;;;;0.60;0.60;;;3.20;99.90;;;;;;5137576;27;21179;-81
2022/04/09 00:45:22;;;;;;;0.50;0.50;;;3.10;99.90;;;;;;5140494;27;20631;-81
2022/04/09 00:47:49;;;;;;;0.70;0.70;;;3.00;99.90;;;;;;5141594;27;21135;-81
2022/04/09 00:50:16;;;;;;;0.50;0.50;;;3.10;99.90;;;;;;5138011;27;20676;-81
2022/04/09 00:52:48;;;;;;;0.73;0.73;;;3.20;99.90;;;;;;5143532;27;21006;-81
2022/04/09 00:55:18;;;;;;;0.70;0.70;;;3.20;99.90;;;;;;5144171;27;20655;-81
2022/04/09 00:57:47;;;;;;;0.70;0.60;;;3.20;99.90;;;;;;5141894;27;20630;-82
2022/04/09 01:00:15;;;;;;;0.83;0.83;;;2.70;99.90;;;;;;5145520;27;20666;-81
2022/04/09 01:02:43;;;;;;;0.80;0.80;;;3.10;99.90;;;;;;5141709;27;20629;-81
2022/04/09 01:05:10;;;;;;;1.27;0.90;;;3.20;99.90;;;;;;5136332;27;20633;-81
2022/04/09 01:07:37;;;;;;;0.90;0.90;;;2.70;99.90;;;;;;5143277;27;20637;-82
2022/04/09 01:10:08;;;;;;;1.10;1.10;;;3.00;99.90;;;;;;5143296;27;20646;-81
2022/04/09 01:12:36;;;;;;;0.90;0.90;;;3.00;99.90;;;;;;5140873;27;20954;-81
2022/04/09 01:15:04;;;;;;;1.00;1.00;;;3.30;99.90;;;;;;5138335;27;20626;-81
2022/04/09 01:17:31;;;;;;;1.20;1.20;;;3.20;99.90;;;;;;5139566;27;20612;-81
2022/04/09 01:19:58;;;;;;;0.87;0.87;;;3.20;99.90;;;;;;5139823;27;20702;-81
2022/04/09 01:22:26;;;;;;;1.00;1.00;;;3.30;99.90;;;;;;5137630;27;20624;-81
2022/04/09 01:24:52;;;;;;;1.00;1.00;;;3.20;99.90;;;;;;5142408;27;20625;-81
2022/04/09 01:27:19;;;;;;;0.67;0.67;;;3.10;99.90;;;;;;5142114;27;21185;-81
2022/04/09 01:29:46;;;;;;;1.10;1.10;;;3.40;99.90;;;;;;5137723;27;20645;-81
2022/04/09 01:32:13;;;;;;;0.73;0.73;;;3.30;99.90;;;;;;5141243;27;21001;-81
2022/04/09 01:34:40;;;;;;;1.13;1.03;;;3.40;99.90;;;;;;5141069;27;20965;-81
2022/04/09 01:37:07;;;;;;;0.90;0.90;;;3.30;99.90;;;;;;5140266;27;20638;-81
2022/04/09 01:39:35;;;;;;;0.70;0.70;;;3.30;99.90;;;;;;5137584;27;21047;-81
2022/04/09 01:42:02;;;;;;;1.57;1.10;;;2.90;99.90;;;;;;5137221;27;20636;-81
2022/04/09 01:44:28;;;;;;;1.03;1.00;;;3.20;99.90;;;;;;5140294;27;20634;-81
2022/04/09 01:46:55;;;;;;;1.17;1.17;;;3.30;99.90;;;;;;5138641;27;20633;-81
2022/04/09 01:49:22;;;;;;;1.20;1.20;;;3.30;99.90;;;;;;5137955;27;20630;-81
2022/04/09 01:51:50;;;;;;;1.20;1.20;;;3.20;99.90;;;;;;5147119;27;21052;-81
2022/04/09 01:54:17;;;;;;;1.30;1.30;;;3.20;99.90;;;;;;5137644;27;20681;-81
2022/04/09 01:56:45;;;;;;;1.03;1.03;;;3.40;99.90;;;;;;5140535;27;21222;-81
2022/04/09 01:59:11;;;;;;;1.57;1.47;;;3.10;99.90;;;;;;5145116;27;20626;-81
2022/04/09 02:01:38;;;;;;;1.60;1.50;;;3.30;99.90;;;;;;5143407;27;20662;-81
2022/04/09 02:04:05;;;;;;;1.77;1.67;;;3.50;99.90;;;;;;5139857;27;20636;-81
2022/04/09 02:06:32;;;;;;;1.43;1.43;;;3.40;99.90;;;;;;5142795;27;22107;-81
2022/04/09 02:08:59;;;;;;;1.87;1.77;;;3.60;99.90;;;;;;5137741;27;20643;-81
2022/04/09 02:11:26;;;;;;;1.73;1.63;;;3.60;99.90;;;;;;5143324;27;20698;-82
2022/04/09 02:13:54;;;;;;;2.07;1.97;;;3.40;99.90;;;;;;5136591;27;20632;-81
2022/04/09 02:16:21;;;;;;;2.43;2.27;;;3.60;99.90;;;;;;5143427;27;21218;-81
2022/04/09 02:18:48;;;;;;;2.20;2.10;;;3.10;99.90;;;;;;5142594;27;20633;-82
2022/04/09 02:21:14;;;;;;;2.00;1.90;;;3.50;99.90;;;;;;5149178;27;20682;-82
2022/04/09 02:23:41;;;;;;;2.20;1.90;;;3.10;99.90;;;;;;5145814;27;20620;-81
2022/04/09 02:26:08;;;;;;;2.43;2.23;;;3.50;99.90;;;;;;5145419;27;20635;-81
2022/04/09 02:28:35;;;;;;;2.30;2.10;;;3.90;99.90;;;;;;5143738;27;20722;-81
2022/04/09 02:31:03;;;;;;;2.43;2.23;;;3.40;99.90;;;;;;5146628;27;21031;-82
2022/04/09 02:33:30;;;;;;;3.03;2.77;;;3.50;99.90;;;;;;5141681;27;20629;-81
2022/04/09 02:35:56;;;;;;;2.40;2.30;;;3.70;99.90;;;;;;5145472;27;21095;-81
2022/04/09 02:38:24;;;;;;;4.60;2.83;;;3.70;99.90;;;;;;5141229;27;20627;-81
2022/04/09 02:40:50;;;;;;;2.80;2.60;;;3.60;99.90;;;;;;5145131;27;21221;-81
2022/04/09 02:43:17;;;;;;;2.60;2.40;;;3.70;99.90;;;;;;5141322;27;20635;-81
2022/04/09 02:45:44;;;;;;;3.17;2.97;;;3.20;99.90;;;;;;5144358;27;21202;-81
2022/04/09 02:48:12;;;;;;;3.30;3.10;;;3.70;99.90;;;;;;5146584;27;20616;-81
2022/04/09 02:50:39;;;;;;;3.03;2.73;;;3.50;99.90;;;;;;5146903;27;21082;-81
2022/04/09 02:53:05;;;;;;;3.67;3.37;;;3.70;99.90;;;;;;5140681;27;20987;-81
2022/04/09 02:55:32;;;;;;;2.87;2.77;;;3.50;99.90;;;;;;5139692;27;20625;-81
2022/04/09 02:58:00;;;;;;;3.30;3.10;;;3.60;99.90;;;;;;5143346;27;20629;-81
2022/04/09 03:00:27;;;;;;;4.10;3.10;;;3.80;99.90;;;;;;5145629;27;20762;-81
2022/04/09 03:02:54;;;;;;;3.30;3.10;;;3.90;99.90;;;;;;5140529;27;20607;-81
2022/04/09 03:05:22;;;;;;;3.70;3.43;;;4.00;99.90;;;;;;5143165;27;20621;-81
2022/04/09 03:07:49;;;;;;;3.30;3.10;;;4.00;99.90;;;;;;5145654;27;20620;-81
2022/04/09 03:10:15;;;;;;;3.47;3.20;;;3.90;99.90;;;;;;5143553;27;21255;-81
2022/04/09 03:12:44;;;;;;;3.33;3.03;;;4.10;99.90;;;;;;5141044;27;20618;-81
2022/04/09 03:15:11;;;;;;;3.83;3.47;;;3.80;99.90;;;;;;5144024;27;20971;-81
2022/04/09 03:17:38;;;;;;;3.60;3.40;;;4.00;99.90;;;;;;5150169;27;20626;-81
2022/04/09 03:20:05;;;;;;;3.77;3.50;;;3.90;99.90;;;;;;5142319;27;20716;-81
2022/04/09 03:22:34;;;;;;;4.00;3.70;;;3.90;99.90;;;;;;5143774;27;20950;-81
2022/04/09 03:25:02;;;;;;;4.23;3.70;;;3.90;99.90;;;;;;5144561;27;20681;-81
2022/04/09 03:27:29;;;;;;;3.63;3.43;;;4.30;99.90;;;;;;5148196;27;20626;-80
2022/04/09 03:29:57;;;;;;;3.60;3.30;;;4.10;99.90;;;;;;5140284;27;20648;-81
2022/04/09 03:32:24;;;;;;;3.50;3.20;;;4.20;99.90;;;;;;5142790;27;20712;-81
2022/04/09 03:34:52;;;;;;;4.20;3.90;;;4.00;99.90;;;;;;5141729;27;20642;-81
2022/04/09 03:37:19;;;;;;;3.67;3.43;;;4.10;99.90;;;;;;5139513;27;20622;-81
2022/04/09 03:39:47;;;;;;;3.37;3.17;;;4.10;99.90;;;;;;5144214;27;20640;-81
2022/04/09 03:42:14;;;;;;;3.13;2.93;;;3.60;99.90;;;;;;5146389;27;21055;-81
2022/04/09 03:44:40;;;;;;;3.10;2.90;;;4.20;99.90;;;;;;5144669;27;20636;-81
2022/04/09 03:47:07;;;;;;;3.53;3.33;;;3.90;99.90;;;;;;5143747;27;21189;-81
2022/04/09 03:49:34;;;;;;;3.90;3.67;;;3.90;99.90;;;;;;5140799;27;20683;-84
2022/04/09 03:52:01;;;;;;;3.53;3.33;;;4.00;99.90;;;;;;5141627;27;20637;-81
2022/04/09 03:54:28;;;;;;;3.90;3.60;;;4.20;99.90;;;;;;5139296;27;20633;-82
2022/04/09 03:56:57;;;;;;;4.00;3.70;;;4.20;99.90;;;;;;5147112;27;21131;-81
2022/04/09 03:59:24;;;;;;;3.70;3.50;;;4.00;99.90;;;;;;5142755;27;20616;-81
2022/04/09 04:01:50;;;;;;;4.37;3.97;;;3.60;99.90;;;;;;5144743;27;20675;-82
2022/04/09 04:04:17;;;;;;;4.53;4.33;;;3.80;99.90;;;;;;5139409;27;20621;-82
2022/04/09 04:06:44;;;;;;;4.80;4.50;;;4.00;99.90;;;;;;5147189;27;20656;-82
2022/04/09 04:09:12;;;;;;;5.60;5.20;;;4.30;99.90;;;;;;5143826;27;20683;-81
2022/04/09 04:11:39;;;;;;;7.00;6.60;;;4.10;99.90;;;;;;5142855;27;20625;-81
2022/04/09 04:14:07;;;;;;;6.83;6.33;;;4.10;99.90;;;;;;5137453;27;21158;-81
2022/04/09 04:16:34;;;;;;;8.00;7.40;;;4.30;99.90;;;;;;5144169;27;20628;-83
2022/04/09 04:19:01;;;;;;;8.50;7.80;;;4.20;99.90;;;;;;5143218;27;20644;-81
2022/04/09 04:21:28;;;;;;;8.70;7.93;;;4.30;99.90;;;;;;5144722;27;20668;-81
2022/04/09 04:23:54;;;;;;;8.73;8.13;;;4.40;99.90;;;;;;5144355;27;20684;-81
2022/04/09 04:26:21;;;;;;;9.40;8.70;;;4.40;99.90;;;;;;5139688;27;20652;-81
2022/04/09 04:28:48;;;;;;;9.20;8.37;;;4.50;99.90;;;;;;5137028;27;20627;-81
2022/04/09 04:31:17;;;;;;;9.40;8.60;;;4.00;99.90;;;;;;5142573;27;21096;-81
2022/04/09 04:33:44;;;;;;;9.70;8.80;;;4.10;99.90;;;;;;5144350;27;20664;-81
2022/04/09 04:36:11;;;;;;;9.80;9.00;;;4.20;99.90;;;;;;5137709;27;20684;-81
2022/04/09 04:38:38;;;;;;;10.43;9.63;;;4.60;99.90;;;;;;5143022;27;21172;-81
2022/04/09 04:41:05;;;;;;;10.90;9.93;;;4.50;99.90;;;;;;5141027;27;21349;-81
2022/04/09 04:43:32;;;;;;;10.10;9.30;;;4.30;99.90;;;;;;5143073;27;20684;-81
2022/04/09 04:45:59;;;;;;;10.10;9.20;;;4.40;99.90;;;;;;5143703;27;20667;-81
2022/04/09 04:48:27;;;;;;;11.60;10.50;;;4.40;99.90;;;;;;5141544;27;20621;-83
2022/04/09 04:50:54;;;;;;;11.50;10.00;;;4.20;99.90;;;;;;5136643;27;20652;-83
2022/04/09 04:53:21;;;;;;;11.07;10.07;;;4.20;99.90;;;;;;5143025;27;20996;-83
2022/04/09 04:55:48;;;;;;;11.10;10.27;;;4.30;99.90;;;;;;5139923;27;20623;-81
2022/04/09 04:58:18;;;;;;;10.27;9.37;;;4.10;99.90;;;;;;5140700;27;20992;-83
2022/04/09 05:00:45;;;;;;;11.57;10.43;;;4.30;99.90;;;;;;5142246;27;21004;-83
2022/04/09 05:03:12;;;;;;;10.97;10.13;;;4.10;99.90;;;;;;5135011;27;20628;-83
2022/04/09 05:05:41;;;;;;;11.40;9.90;;;4.30;99.90;;;;;;5136725;27;20620;-83
2022/04/09 05:08:09;;;;;;;11.27;10.17;;;4.20;99.90;;;;;;5139150;27;20643;-83
2022/04/09 05:10:36;;;;;;;10.30;9.33;;;4.10;99.90;;;;;;5139829;27;20700;-83
2022/04/09 05:13:02;;;;;;;10.37;9.50;;;4.10;99.90;;;;;;5143923;27;21015;-83
2022/04/09 05:15:29;;;;;;;11.80;9.87;;;3.80;99.90;;;;;;5140003;27;20628;-83
2022/04/09 05:17:56;;;;;;;10.50;9.70;;;4.00;99.90;;;;;;5138332;27;21070;-83
2022/04/09 05:20:23;;;;;;;10.17;9.20;;;4.20;99.90;;;;;;5138125;27;20652;-83
2022/04/09 05:22:51;;;;;;;10.33;9.30;;;4.20;99.90;;;;;;5138456;27;21214;-83
2022/04/09 05:25:19;;;;;;;10.67;9.83;;;4.30;99.90;;;;;;5136369;27;20637;-81
2022/04/09 05:27:46;;;;;;;12.23;10.97;;;4.40;99.90;;;;;;5143711;27;20636;-81
2022/04/09 05:30:13;;;;;;;9.23;8.37;;;4.20;99.90;;;;;;5138709;27;20660;-81
2022/04/09 05:32:40;;;;;;;8.67;7.97;;;4.40;99.90;;;;;;5145251;27;20655;-81
2022/04/09 05:35:08;;;;;;;10.80;9.90;;;4.40;99.90;;;;;;5139340;27;20644;-81
2022/04/09 05:37:35;;;;;;;10.97;10.07;;;4.50;99.90;;;;;;5137471;27;20632;-81
2022/04/09 05:40:05;;;;;;;9.47;8.67;;;4.20;99.90;;;;;;5140388;27;20658;-81
2022/04/09 05:42:32;;;;;;;9.90;8.90;;;4.60;99.90;;;;;;5139870;27;21039;-81
2022/04/09 05:44:59;;;;;;;9.37;8.57;;;4.50;99.90;;;;;;5136593;27;20643;-81
2022/04/09 05:47:26;;;;;;;8.70;8.00;;;4.50;99.90;;;;;;5137173;27;21039;-81
2022/04/09 05:49:53;;;;;;;9.30;8.60;;;4.40;99.90;;;;;;5136110;27;20661;-81
2022/04/09 05:52:20;;;;;;;9.23;8.43;;;4.70;99.90;;;;;;5145733;27;20629;-82
2022/04/09 05:54:48;;;;;;;9.50;8.70;;;4.70;99.90;;;;;;5134153;27;20625;-81
2022/04/09 05:57:17;;;;;;;8.93;8.23;;;4.50;99.90;;;;;;5138205;27;20627;-81
2022/04/09 05:59:44;;;;;;;9.23;8.30;;;4.70;99.90;;;;;;5141643;27;20700;-81
2022/04/09 06:02:12;;;;;;;8.40;7.60;;;4.70;99.90;;;;;;5136158;27;20722;-80
2022/04/09 06:04:39;;;;;;;7.67;7.03;;;4.70;99.90;;;;;;5139321;27;20656;-80
2022/04/09 06:07:06;;;;;;;7.63;6.83;;;4.80;99.90;;;;;;5140212;27;20694;-80
2022/04/09 06:09:33;;;;;;;7.60;6.93;;;4.70;99.90;;;;;;5139472;27;20727;-80
2022/04/09 06:11:59;;;;;;;8.27;7.57;;;4.80;99.90;;;;;;5133879;27;20645;-80
2022/04/09 06:14:27;;;;;;;8.33;7.63;;;4.70;99.90;;;;;;5142785;27;20617;-81
2022/04/09 06:16:54;;;;;;;7.93;7.20;;;4.80;99.90;;;;;;5133819;27;20625;-80
2022/04/09 06:19:21;;;;;;;7.97;6.90;;;4.90;99.90;;;;;;5139285;27;20626;-80
2022/04/09 06:21:48;;;;;;;7.90;7.30;;;4.90;99.90;;;;;;5135775;27;21018;-81
2022/04/09 06:24:14;;;;;;;7.47;6.80;;;4.70;99.90;;;;;;5139279;27;20621;-80
2022/04/09 06:26:41;;;;;;;9.90;7.83;;;4.80;99.90;;;;;;5136669;27;21187;-81
2022/04/09 06:29:08;;;;;;;8.50;7.00;;;5.30;99.90;;;;;;5136995;27;21163;-81
2022/04/09 06:31:36;;;;;;;7.63;6.93;;;5.40;99.90;;;;;;5141739;27;20614;-81
2022/04/09 06:34:03;;;;;;;8.57;6.00;;;4.90;99.90;;;;;;5139648;27;20608;-81
2022/04/09 06:36:29;;;;;;;6.07;5.47;;;5.20;99.90;;;;;;5139458;27;20621;-81
2022/04/09 06:38:56;;;;;;;5.43;5.03;;;5.20;99.90;;;;;;5137297;27;20637;-81
2022/04/09 06:41:23;;;;;;;7.60;6.17;;;5.40;99.90;;;;;;5138595;27;21320;-81
2022/04/09 06:43:50;;;;;;;7.30;6.80;;;5.00;99.90;;;;;;5136382;27;20639;-81
2022/04/09 06:46:17;;;;;;;6.97;6.27;;;5.50;99.90;;;;;;5139730;27;20614;-81
2022/04/09 06:48:45;;;;;;;7.77;6.87;;;5.70;99.90;;;;;;5140876;27;20652;-81
2022/04/09 06:51:12;;;;;;;7.27;6.67;;;5.70;99.90;;;;;;5132574;27;21010;-81
2022/04/09 06:53:39;;;;;;;6.23;5.73;;;5.40;99.90;;;;;;5145193;27;20604;-81
2022/04/09 06:56:06;;;;;;;10.33;6.30;;;5.50;99.90;;;;;;5136076;27;20687;-81
2022/04/09 06:58:34;;;;;;;7.60;6.90;;;5.60;99.90;;;;;;5141781;27;21182;-81
2022/04/09 07:01:01;;;;;;;7.73;5.80;;;5.70;99.90;;;;;;5144084;27;21254;-81
2022/04/09 07:03:28;;;;;;;7.10;6.33;;;5.70;99.90;;;;;;5139671;27;20689;-81
2022/04/09 07:05:56;;;;;;;7.80;6.53;;;5.60;99.90;;;;;;5138381;27;20625;-81
2022/04/09 07:08:22;;;;;;;6.00;5.50;;;5.70;99.90;;;;;;5137994;27;21010;-81
2022/04/09 07:10:50;;;;;;;9.27;6.40;;;5.70;99.90;;;;;;5142201;27;20652;-81
2022/04/09 07:13:17;;;;;;;6.87;5.80;;;5.90;99.90;;;;;;5145460;27;20617;-81
2022/04/09 07:15:45;;;;;;;7.50;6.60;;;5.70;99.90;;;;;;5141195;27;21085;-81
2022/04/09 07:18:12;;;;;;;6.90;6.33;;;5.90;99.90;;;;;;5139911;27;20968;-81
2022/04/09 07:20:40;;;;;;;6.70;6.00;;;5.90;99.90;;;;;;5137803;27;20644;-81
2022/04/09 07:23:09;;;;;;;7.63;6.73;;;5.70;99.90;;;;;;5142908;27;21252;-81
2022/04/09 07:25:36;;;;;;;8.23;5.87;;;5.80;99.90;;;;;;5141283;27;20628;-81
2022/04/09 07:28:04;;;;;;;9.37;6.47;;;5.50;99.90;;;;;;5140627;27;20630;-81
2022/04/09 07:30:30;;;;;;;8.40;6.83;;;6.10;99.90;;;;;;5146451;27;21025;-81
2022/04/09 07:32:58;;;;;;;6.70;5.30;;;6.00;99.90;;;;;;5140326;27;20704;-81
2022/04/09 07:35:24;;;;;;;7.10;6.10;;;6.10;99.90;;;;;;5138045;27;20672;-81
2022/04/09 07:37:54;;;;;;;8.00;7.20;;;6.30;99.90;;;;;;5144315;27;20633;-81
2022/04/09 07:40:24;;;;;;;7.20;6.27;;;6.20;99.90;;;;;;5145001;27;20633;-81
2022/04/09 07:42:52;;;;;;;8.27;7.33;;;6.40;99.90;;;;;;5142932;27;20803;-81
2022/04/09 07:45:19;;;;;;;6.57;5.97;;;6.60;99.90;;;;;;5139101;27;20912;-81
2022/04/09 07:47:46;;;;;;;6.70;4.90;;;6.70;99.90;;;;;;5141110;27;21074;-80
2022/04/09 07:50:13;;;;;;;4.67;4.20;;;6.80;99.90;;;;;;5137024;27;20647;-81
2022/04/09 07:52:42;;;;;;;5.90;5.10;;;6.50;99.90;;;;;;5140863;27;20718;-81
2022/04/09 07:55:11;;;;;;;6.57;4.50;;;6.80;99.90;;;;;;5145820;27;20708;-81
2022/04/09 07:57:39;;;;;;;7.90;6.13;;;7.00;99.90;;;;;;5138850;27;20661;-81
2022/04/09 08:00:08;;;;;;;8.33;5.87;;;6.90;99.90;;;;;;5140205;27;20646;-81
2022/04/09 08:02:34;;;;;;;8.07;5.50;;;7.00;99.90;;;;;;5140135;27;20670;-81
2022/04/09 08:05:01;;;;;;;6.00;3.73;;;7.10;99.90;;;;;;5140764;27;20625;-81
2022/04/09 08:07:28;;;;;;;4.83;4.27;;;7.30;99.90;;;;;;5144180;27;21039;-81
2022/04/09 08:09:55;;;;;;;6.53;4.60;;;7.10;99.90;;;;;;5137559;27;20655;-80
2022/04/09 08:12:22;;;;;;;5.57;4.87;;;7.10;99.90;;;;;;5140104;27;20614;-81
2022/04/09 08:14:50;;;;;;;4.77;4.27;;;6.90;99.90;;;;;;5141655;27;20636;-81
2022/04/09 08:17:20;;;;;;;5.53;4.33;;;7.20;99.90;;;;;;5142455;27;20626;-81
2022/04/09 08:19:47;;;;;;;6.73;4.20;;;7.10;99.90;;;;;;5140720;27;20743;-81
2022/04/09 08:22:14;;;;;;;6.50;4.37;;;6.60;99.90;;;;;;5137569;27;21218;-81
2022/04/09 08:24:41;;;;;;;5.90;4.30;;;6.70;99.90;;;;;;5146059;27;20626;-81
2022/04/09 08:27:08;;;;;;;7.63;3.87;;;6.90;99.90;;;;;;5141308;27;20629;-80
2022/04/09 08:29:35;;;;;;;6.07;4.10;;;7.00;99.90;;;;;;5139989;27;20641;-80
2022/04/09 08:32:04;;;;;;;7.43;3.97;;;6.70;99.90;;;;;;5143344;27;20717;-80
2022/04/09 08:34:34;;;;;;;7.93;4.27;;;7.10;99.90;;;;;;5138514;27;20657;-80
2022/04/09 08:37:01;;;;;;;7.67;4.50;;;6.60;99.90;;;;;;5140615;27;20629;-80
2022/04/09 08:39:28;;;;;;;4.73;3.80;;;7.00;99.90;;;;;;5141924;27;20629;-80
2022/04/09 08:41:58;;;;;;;5.87;4.17;;;7.00;99.90;;;;;;5140055;27;20636;-80
2022/04/09 08:44:25;;;;;;;3.50;3.20;;;6.50;99.90;;;;;;5138450;27;20726;-80
2022/04/09 08:46:54;;;;;;;6.23;3.60;;;6.70;99.90;;;;;;5139332;27;21412;-80
2022/04/09 08:49:24;;;;;;;6.83;3.60;;;7.10;99.90;;;;;;5137688;27;20633;-80
2022/04/09 08:51:51;;;;;;;4.60;3.23;;;7.00;99.90;;;;;;5138018;27;20617;-80
2022/04/09 08:54:18;;;;;;;11.60;4.83;;;6.90;99.90;;;;;;5142578;27;20617;-80
2022/04/09 08:56:45;;;;;;;6.77;3.93;;;7.00;99.90;;;;;;5139046;27;20637;-81
2022/04/09 08:59:12;;;;;;;12.87;4.57;;;7.00;99.90;;;;;;5137800;27;20680;-81
2022/04/09 09:01:39;;;;;;;8.73;3.93;;;6.90;99.90;;;;;;5138687;27;20652;-81
2022/04/09 09:04:06;;;;;;;5.53;3.60;;;7.10;99.90;;;;;;5137544;27;20652;-81
2022/04/09 09:06:39;;;;;;;7.93;3.67;;;7.20;99.90;;;;;;5139561;27;21166;-82
2022/04/09 09:09:06;;;;;;;6.70;3.83;;;6.70;99.90;;;;;;5139620;27;21238;-82
2022/04/09 09:11:46;;;;;;;8.77;3.80;;;7.10;99.90;;;;;;5142493;27;20641;-82
2022/04/09 09:14:24;;;;;;;8.50;3.80;;;7.00;99.90;;;;;;5139522;27;20640;-81
2022/04/09 09:16:51;;;;;;;6.13;4.40;;;6.80;99.90;;;;;;5141602;27;20625;-81
2022/04/09 09:19:18;;;;;;;4.97;3.17;;;7.30;99.90;;;;;;5144408;27;21048;-81
2022/04/09 09:21:54;;;;;;;4.97;3.90;;;6.80;99.90;;;;;;5137304;27;20625;-81
2022/04/09 09:24:21;;;;;;;5.23;3.50;;;7.50;99.90;;;;;;5139381;27;20681;-81
2022/04/09 09:26:59;;;;;;;4.80;3.30;;;7.60;99.90;;;;;;5143111;27;20632;-81
2022/04/09 09:29:27;;;;;;;9.57;3.33;;;7.00;99.90;;;;;;5137176;27;20675;-81
2022/04/09 09:31:56;;;;;;;6.50;3.60;;;7.40;99.90;;;;;;5138113;27;20630;-81
2022/04/09 09:34:23;;;;;;;6.10;3.10;;;7.10;99.90;;;;;;5140472;27;20977;-81
2022/04/09 09:36:50;;;;;;;5.67;3.37;;;7.20;99.90;;;;;;5139294;27;21249;-81
2022/04/09 09:39:19;;;;;;;6.37;3.83;;;7.40;99.90;;;;;;5137682;27;21194;-81
2022/04/09 09:41:49;;;;;;;4.70;2.93;;;7.50;99.90;;;;;;5136323;27;20637;-82
2022/04/09 09:44:16;;;;;;;8.23;3.83;;;7.60;99.90;;;;;;5144212;27;20662;-81
2022/04/09 09:46:44;;;;;;;10.37;5.30;;;7.50;99.90;;;;;;5140949;27;20619;-81
2022/04/09 09:49:11;;;;;;;7.90;3.37;;;7.80;99.90;;;;;;5138014;27;20660;-82
2022/04/09 09:51:38;;;;;;;8.40;3.67;;;8.00;99.90;;;;;;5135495;27;21153;-82
2022/04/09 09:54:06;;;;;;;7.67;3.57;;;8.30;99.90;;;;;;5140061;27;20628;-81
2022/04/09 09:56:36;;;;;;;4.77;2.63;;;8.20;99.90;;;;;;5137755;27;20638;-82
2022/04/09 09:59:05;;;;;;;11.40;4.03;;;8.10;99.90;;;;;;5141314;27;20648;-82
2022/04/09 10:01:32;;;;;;;4.33;3.03;;;8.60;99.90;;;;;;5140686;27;21092;-82
2022/04/09 10:04:00;;;;;;;4.80;3.10;;;8.40;99.90;;;;;;5131581;27;20681;-83
2022/04/09 10:06:28;;;;;;;4.90;2.47;;;8.90;99.90;;;;;;5139549;27;20613;-83
2022/04/09 10:08:55;;;;;;;4.47;2.43;;;9.10;99.90;;;;;;5138887;27;20633;-82
2022/04/09 10:11:22;;;;;;;5.93;3.10;;;8.70;99.90;;;;;;5141558;27;21593;-82
2022/04/09 10:13:52;;;;;;;3.20;2.10;;;8.80;99.90;;;;;;5136987;27;20613;-82
2022/04/09 10:16:21;;;;;;;3.67;2.40;;;8.90;99.90;;;;;;5135291;27;20624;-82
2022/04/09 10:18:49;;;;;;;5.57;2.90;;;8.60;99.90;;;;;;5142899;27;21163;-83
2022/04/09 10:21:17;;;;;;;4.77;2.33;;;8.80;99.90;;;;;;5137279;27;20753;-83
2022/04/09 10:23:45;;;;;;;3.33;2.60;;;8.60;99.90;;;;;;5140851;27;20675;-83
2022/04/09 10:26:12;;;;;;;9.10;2.63;;;8.70;99.90;;;;;;5143027;27;20620;-83
2022/04/09 10:28:40;;;;;;;8.57;3.13;;;9.00;99.90;;;;;;5139906;27;20776;-83
2022/04/09 10:31:35;;;;;;;8.60;2.97;;;9.00;99.90;;;;;;5138499;27;20645;-83
2022/04/09 10:34:02;;;;;;;4.57;2.43;;;9.90;99.90;;;;;;5139933;27;20989;-83
2022/04/09 10:37:02;;;;;;;4.10;2.20;;;9.60;99.90;;;;;;5135671;27;20625;-83
2022/04/09 10:39:39;;;;;;;7.40;2.40;;;10.00;99.90;;;;;;5144473;27;20645;-83
2022/04/09 10:42:06;;;;;;;8.83;3.40;;;9.80;99.90;;;;;;5139778;27;20705;-83
2022/04/09 10:44:53;;;;;;;8.53;3.20;;;9.60;99.90;;;;;;5144978;27;20707;-82
2022/04/09 10:47:21;;;;;;;4.27;2.43;;;9.20;99.90;;;;;;5144149;27;20613;-84
2022/04/09 10:50:11;;;;;;;5.40;2.67;;;9.20;99.90;;;;;;5145915;27;20641;-83
2022/04/09 10:52:38;;;;;;;6.83;3.00;;;9.60;99.90;;;;;;5145377;27;20628;-83
2022/04/09 10:55:23;;;;;;;4.10;2.30;;;9.90;99.90;;;;;;5144574;27;20624;-82
2022/04/09 10:57:52;;;;;;;9.20;2.63;;;10.10;99.90;;;;;;5140714;27;20613;-81
2022/04/09 11:00:43;;;;;;;4.00;1.80;;;9.80;97.20;;;;;;5142083;27;20697;-81
2022/04/09 11:03:17;;;;;;;4.40;2.23;;;9.80;98.80;;;;;;5139596;27;20674;-81
2022/04/09 11:05:44;;;;;;;6.67;2.23;;;10.00;99.90;;;;;;5145778;27;20663;-81
2022/04/09 11:08:14;;;;;;;8.13;2.27;;;9.80;99.90;;;;;;5144128;27;20633;-81
2022/04/09 11:10:42;;;;;;;4.53;2.50;;;10.40;97.90;;;;;;5147337;27;20641;-82
2022/04/09 11:13:10;;;;;;;8.33;2.63;;;9.90;99.00;;;;;;5145624;27;20649;-81
2022/04/09 11:15:38;;;;;;;4.20;2.40;;;9.80;97.70;;;;;;5140570;27;20632;-82
2022/04/09 11:18:05;;;;;;;3.97;2.07;;;9.50;98.80;;;;;;5143483;27;20629;-82
2022/04/09 11:20:34;;;;;;;2.87;2.10;;;10.10;99.90;;;;;;5142083;27;21013;-82
2022/04/09 11:23:10;;;;;;;8.10;2.33;;;9.30;99.40;;;;;;5144400;27;21040;-83
2022/04/09 11:25:36;;;;;;;5.13;2.20;;;9.70;99.90;;;;;;5143720;27;21182;-83
2022/04/09 11:28:08;;;;;;;6.73;2.73;;;9.50;96.90;;;;;;5142028;27;20637;-83
2022/04/09 11:30:34;;;;;;;4.10;1.90;;;10.10;96.30;;;;;;5142649;27;21086;-84
2022/04/09 11:33:01;;;;;;;6.27;2.50;;;9.90;92.90;;;;;;5144767;27;21207;-83
2022/04/09 11:35:35;;;;;;;3.03;2.07;;;10.40;93.90;;;;;;5146613;27;21063;-83
2022/04/09 11:38:02;;;;;;;4.70;1.97;;;10.40;92.00;;;;;;5140312;27;20630;-83
2022/04/09 11:40:29;;;;;;;3.70;2.40;;;10.80;91.40;;;;;;5144480;27;20656;-84
2022/04/09 11:42:57;;;;;;;6.20;2.07;;;11.20;90.20;;;;;;5146639;27;20629;-84
2022/04/09 11:45:26;;;;;;;4.30;2.30;;;11.50;83.20;;;;;;5143251;27;21199;-83
2022/04/09 11:47:53;;;;;;;5.40;2.00;;;11.30;83.00;;;;;;5139495;27;20621;-83
2022/04/09 11:50:21;;;;;;;5.87;2.40;;;11.10;80.30;;;;;;5143582;27;20664;-83
2022/04/09 11:52:49;;;;;;;3.90;1.90;;;11.30;76.40;;;;;;5146147;27;20621;-83
2022/04/09 11:55:17;;;;;;;5.83;2.23;;;10.70;79.80;;;;;;5140906;27;21194;-83
2022/04/09 11:57:49;;;;;;;3.83;1.70;;;11.20;82.00;;;;;;5139289;27;20632;-83
2022/04/09 12:00:16;;;;;;;4.00;2.30;;;11.70;84.80;;;;;;5138839;27;20644;-84
2022/04/09 12:02:43;;;;;;;5.87;2.50;;;12.10;78.90;;;;;;5141536;27;20879;-83
2022/04/09 12:05:11;;;;;;;5.00;2.67;;;12.40;76.60;;;;;;5140311;27;20665;-83
2022/04/09 12:07:41;;;;;;;8.70;3.27;;;12.70;76.30;;;;;;5140986;27;20609;-83
2022/04/09 12:10:22;;;;;;;3.07;1.73;;;12.80;74.90;;;;;;5145629;27;20743;-83
2022/04/09 12:12:55;;;;;;;5.93;2.73;;;12.50;74.00;;;;;;5136821;27;20625;-83
2022/04/09 12:15:27;;;;;;;3.77;1.60;;;12.10;73.00;;;;;;5140446;27;20996;-83
2022/04/09 12:17:54;;;;;;;4.00;1.63;;;11.90;76.90;;;;;;5144836;27;20615;-84
2022/04/09 12:20:31;;;;;;;3.43;2.90;;;11.70;74.20;;;;;;5136775;27;20648;-82
2022/04/09 12:22:58;;;;;;;2.60;2.00;;;11.20;72.90;;;;;;5141784;27;20695;-83
2022/04/09 12:25:38;;;;;;;7.90;2.60;;;10.50;74.10;;;;;;5138666;27;20633;-83
2022/04/09 12:28:06;;;;;;;4.13;1.90;;;10.70;78.00;;;;;;5139454;27;20613;-83
2022/04/09 12:30:45;;;;;;;3.23;2.00;;;10.90;77.80;;;;;;5142597;27;21222;-83
2022/04/09 12:33:12;;;;;;;5.37;2.10;;;11.20;76.60;;;;;;5138479;27;20633;-83
2022/04/09 12:35:39;;;;;;;4.23;2.40;;;11.20;79.20;;;;;;5142341;27;20638;-83
2022/04/09 12:38:06;;;;;;;5.50;2.87;;;11.10;78.60;;;;;;5138833;27;20649;-83
2022/04/09 12:40:35;;;;;;;5.43;2.10;;;11.10;81.90;;;;;;5141713;27;20657;-83
2022/04/09 12:43:03;;;;;;;5.10;2.23;;;11.70;76.10;;;;;;5139910;27;20610;-83
2022/04/09 12:45:30;;;;;;;5.63;1.97;;;12.10;71.90;;;;;;5142127;27;21047;-82
2022/04/09 12:47:59;;;;;;;2.53;1.90;;;12.20;70.10;;;;;;5143195;27;21196;-83
2022/04/09 12:50:28;;;;;;;7.27;2.57;;;12.10;70.90;;;;;;5137184;27;20650;-83
2022/04/09 12:52:56;;;;;;;3.90;2.00;;;11.90;71.00;;;;;;5148511;27;21086;-83
2022/04/09 12:55:25;;;;;;;3.57;2.50;;;12.00;73.60;;;;;;5146383;27;20656;-83
2022/04/09 12:57:54;;;;;;;4.83;1.90;;;12.10;74.50;;;;;;5141921;27;20623;-83
2022/04/09 13:00:23;;;;;;;3.20;2.17;;;12.30;73.30;;;;;;5139954;27;20657;-83